Time;durP1;ratioP1;P1;durP2;ratioP2;P2;SDS_P1;SDS_P2;PMS_P1;PMS_P2;Temp;Humidity;BMP_temperature;BMP_pressure;BME280_temperature;BME280_humidity;BME280_pressure;Samples;Min_cycle;Max_cycle;Signal;HPM_P1;HPM_P2
2023/06/19 00:01:12;;;;;;;;;;;22.70;61.50;;;;;;5011466;28;19925;-70
2023/06/19 00:03:38;;;;;;;;;;;22.70;61.50;;;;;;4987962;28;20400;-69
2023/06/19 00:06:04;;;;;;;;;;;22.70;61.50;;;;;;4985323;28;20354;-70
2023/06/19 00:08:30;;;;;;;;;;;22.70;61.60;;;;;;4987729;28;20384;-70
2023/06/19 00:10:56;;;;;;;;;;;22.70;61.60;;;;;;4988012;28;19942;-70
2023/06/19 00:13:21;;;;;;;;;;;22.70;61.60;;;;;;4987922;28;19920;-70
2023/06/19 00:15:47;;;;;;;;;;;22.60;61.60;;;;;;4987823;28;19921;-69
2023/06/19 00:18:12;;;;;;;;;;;22.60;61.80;;;;;;4986455;28;19936;-69
2023/06/19 00:20:39;;;;;;;;;;;22.60;61.70;;;;;;4991416;28;19909;-69
2023/06/19 00:23:05;;;;;;;;;;;22.60;61.90;;;;;;4967960;28;19922;-69
2023/06/19 00:25:31;;;;;;;;;;;22.60;61.80;;;;;;4968087;28;19920;-70
2023/06/19 00:27:56;;;;;;;;;;;22.60;61.80;;;;;;4978183;28;19917;-70
2023/06/19 00:30:22;;;;;;;;;;;22.50;61.80;;;;;;4987649;28;19921;-69
2023/06/19 00:32:49;;;;;;;;;;;22.50;61.80;;;;;;5023616;28;19959;-70
2023/06/19 00:35:15;;;;;;;;;;;22.50;62.00;;;;;;5047329;28;20277;-70
2023/06/19 00:37:44;;;;;;;;;;;22.40;61.80;;;;;;5088222;28;19919;-69
2023/06/19 00:40:19;;;;;;;;;;;22.40;62.00;;;;;;5089735;28;20498;-70
2023/06/19 00:42:45;;;;;;;;;;;22.40;62.20;;;;;;5089878;28;20008;-70
2023/06/19 00:45:10;;;;;;;;;;;22.40;62.40;;;;;;5089841;28;19947;-69
2023/06/19 00:47:37;;;;;;;;;;;22.40;62.40;;;;;;4994222;28;19914;-69
2023/06/19 00:50:02;;;;;;;;;;;22.30;62.30;;;;;;4986032;28;19918;-69
2023/06/19 00:52:28;;;;;;;;;;;22.30;62.30;;;;;;4990761;28;19910;-69
2023/06/19 00:54:53;;;;;;;;;;;22.30;62.40;;;;;;4987577;28;20295;-70
2023/06/19 00:57:19;;;;;;;;;;;22.30;62.60;;;;;;4985748;28;19918;-69
2023/06/19 00:59:45;;;;;;;;;;;22.20;62.70;;;;;;4987271;28;20392;-69
2023/06/19 01:02:10;;;;;;;;;;;22.20;62.80;;;;;;4987320;28;19917;-69
2023/06/19 01:04:36;;;;;;;;;;;22.20;63.10;;;;;;4987130;28;20264;-69
2023/06/19 01:07:13;;;;;;;;;;;22.20;62.90;;;;;;4986820;28;19936;-70
2023/06/19 01:09:44;;;;;;;;;;;22.20;62.70;;;;;;4987221;28;20020;-70
2023/06/19 01:12:13;;;;;;;;;;;22.20;62.70;;;;;;4986979;28;19949;-69
2023/06/19 01:14:43;;;;;;;;;;;22.20;62.60;;;;;;5001503;28;20283;-69
2023/06/19 01:17:09;;;;;;;;;;;22.10;62.60;;;;;;4986342;28;19921;-69
2023/06/19 01:19:35;;;;;;;;;;;22.10;62.80;;;;;;4987048;28;20365;-69
2023/06/19 01:22:01;;;;;;;;;;;22.10;63.00;;;;;;4997595;28;19949;-69
2023/06/19 01:24:27;;;;;;;;;;;22.10;63.20;;;;;;5088687;28;19916;-70
2023/06/19 01:26:52;;;;;;;;;;;22.00;62.90;;;;;;5088637;28;20430;-70
2023/06/19 01:29:18;;;;;;;;;;;22.00;63.00;;;;;;5088868;28;20379;-70
2023/06/19 01:31:50;;;;;;;;;;;22.00;63.10;;;;;;5084167;28;19912;-69
2023/06/19 01:34:17;;;;;;;;;;;22.00;63.10;;;;;;4987084;28;19956;-69
2023/06/19 01:36:43;;;;;;;;;;;22.00;63.00;;;;;;4986388;28;19914;-69
2023/06/19 01:39:09;;;;;;;;;;;22.00;63.20;;;;;;4986797;28;20397;-69
2023/06/19 01:41:35;;;;;;;;;;;21.90;63.00;;;;;;4986815;28;20448;-71
2023/06/19 01:44:02;;;;;;;;;;;21.90;63.00;;;;;;4986882;28;19914;-69
2023/06/19 01:46:27;;;;;;;;;;;21.90;63.10;;;;;;4986420;28;19965;-69
2023/06/19 01:48:53;;;;;;;;;;;21.90;63.30;;;;;;4986898;28;19960;-69
2023/06/19 01:51:19;;;;;;;;;;;21.90;63.10;;;;;;4991449;28;19949;-69
2023/06/19 01:53:44;;;;;;;;;;;21.90;63.30;;;;;;4986722;28;20424;-69
2023/06/19 01:56:10;;;;;;;;;;;21.90;63.50;;;;;;4986308;28;20431;-69
2023/06/19 01:58:35;;;;;;;;;;;21.80;63.40;;;;;;4986351;28;19910;-69
2023/06/19 02:01:01;;;;;;;;;;;21.80;63.20;;;;;;4986657;28;19914;-69
2023/06/19 02:03:26;;;;;;;;;;;21.80;63.30;;;;;;4986481;28;19975;-69
2023/06/19 02:05:52;;;;;;;;;;;21.80;63.60;;;;;;5037885;28;19916;-69
2023/06/19 02:08:17;;;;;;;;;;;21.80;63.50;;;;;;5088551;28;19916;-69
2023/06/19 02:10:43;;;;;;;;;;;21.80;63.70;;;;;;5088866;28;20646;-69
2023/06/19 02:13:09;;;;;;;;;;;21.80;63.60;;;;;;5088500;28;19915;-69
2023/06/19 02:15:34;;;;;;;;;;;21.80;63.60;;;;;;5080417;28;19908;-69
2023/06/19 02:18:00;;;;;;;;;;;21.80;63.60;;;;;;4986316;28;19956;-70
2023/06/19 02:20:25;;;;;;;;;;;21.70;63.40;;;;;;4988526;28;19917;-69
2023/06/19 02:22:51;;;;;;;;;;;21.70;63.50;;;;;;4987331;28;20529;-69
2023/06/19 02:25:17;;;;;;;;;;;21.70;63.70;;;;;;4985984;28;20264;-69
2023/06/19 02:27:43;;;;;;;;;;;21.70;63.70;;;;;;4986786;28;19921;-69
2023/06/19 02:30:08;;;;;;;;;;;21.70;63.40;;;;;;4989808;28;20428;-69
2023/06/19 02:32:34;;;;;;;;;;;21.70;63.80;;;;;;4989675;28;20351;-69
2023/06/19 02:34:59;;;;;;;;;;;21.70;63.60;;;;;;4989667;28;20430;-69
2023/06/19 02:37:25;;;;;;;;;;;21.70;63.90;;;;;;4989365;28;19914;-69
2023/06/19 02:39:50;;;;;;;;;;;21.70;64.00;;;;;;4990071;28;20309;-69
2023/06/19 02:42:16;;;;;;;;;;;21.70;63.80;;;;;;4989739;28;20664;-69
2023/06/19 02:44:43;;;;;;;;;;;21.70;63.90;;;;;;4989734;28;19914;-69
2023/06/19 02:47:08;;;;;;;;;;;21.70;63.80;;;;;;4989182;28;19914;-69
2023/06/19 02:49:34;;;;;;;;;;;21.70;63.80;;;;;;4989469;28;19966;-69
2023/06/19 02:51:59;;;;;;;;;;;21.70;63.80;;;;;;4992863;28;20076;-69
2023/06/19 02:54:25;;;;;;;;;;;21.70;63.80;;;;;;4989568;28;19910;-69
2023/06/19 02:56:50;;;;;;;;;;;21.60;63.80;;;;;;4988905;28;20038;-69
2023/06/19 02:59:16;;;;;;;;;;;21.70;64.00;;;;;;4988248;28;20343;-69
2023/06/19 03:01:41;;;;;;;;;;;21.60;63.70;;;;;;4987882;28;19960;-69
2023/06/19 03:04:07;;;;;;;;;;;21.70;63.90;;;;;;4989221;28;20028;-69
2023/06/19 03:06:39;;;;;;;;;;;21.70;63.90;;;;;;4988929;28;19910;-71
2023/06/19 03:09:11;;;;;;;;;;;21.70;63.80;;;;;;4989200;28;19945;-69
2023/06/19 03:11:38;;;;;;;;;;;21.70;63.70;;;;;;4989282;28;19956;-69
2023/06/19 03:14:07;;;;;;;;;;;21.70;63.80;;;;;;4989045;28;19914;-69
2023/06/19 03:16:33;;;;;;;;;;;21.70;63.80;;;;;;4987397;28;20414;-69
2023/06/19 03:18:58;;;;;;;;;;;21.70;63.80;;;;;;5003497;28;19953;-69
2023/06/19 03:21:24;;;;;;;;;;;21.70;64.40;;;;;;4987624;28;19948;-69
2023/06/19 03:23:50;;;;;;;;;;;21.80;64.20;;;;;;4985066;28;19999;-69
2023/06/19 03:26:15;;;;;;;;;;;21.70;64.80;;;;;;4988693;28;19914;-69
2023/06/19 03:28:41;;;;;;;;;;;21.80;64.30;;;;;;5024784;28;19912;-69
2023/06/19 03:31:06;;;;;;;;;;;21.80;64.60;;;;;;5048804;28;19912;-69
2023/06/19 03:33:32;;;;;;;;;;;21.80;64.20;;;;;;5091472;28;19912;-69
2023/06/19 03:35:57;;;;;;;;;;;21.80;64.30;;;;;;5091224;28;19924;-69
2023/06/19 03:38:23;;;;;;;;;;;21.70;64.20;;;;;;5091121;28;19912;-69
2023/06/19 03:40:48;;;;;;;;;;;21.80;64.90;;;;;;5091337;28;19916;-69
2023/06/19 03:43:13;;;;;;;;;;;21.80;64.80;;;;;;5089927;28;19954;-69
2023/06/19 03:45:39;;;;;;;;;;;21.80;64.40;;;;;;5079308;28;20356;-69
2023/06/19 03:48:05;;;;;;;;;;;21.80;64.60;;;;;;4988505;28;19914;-70
2023/06/19 03:50:30;;;;;;;;;;;21.80;65.00;;;;;;4991189;28;19914;-69
2023/06/19 03:52:56;;;;;;;;;;;21.80;64.70;;;;;;4989360;28;19921;-69
2023/06/19 03:55:21;;;;;;;;;;;21.80;65.30;;;;;;5002606;28;20393;-69
2023/06/19 03:57:47;;;;;;;;;;;21.80;64.90;;;;;;5006833;28;19918;-69
2023/06/19 04:00:14;;;;;;;;;;;21.80;65.10;;;;;;5008319;28;19924;-69
2023/06/19 04:02:40;;;;;;;;;;;21.80;64.70;;;;;;5008163;28;19917;-69
2023/06/19 04:05:06;;;;;;;;;;;21.70;64.60;;;;;;4999919;28;20374;-69
2023/06/19 04:07:31;;;;;;;;;;;21.70;64.70;;;;;;5080937;28;20691;-69
2023/06/19 04:09:57;;;;;;;;;;;21.70;64.80;;;;;;5090980;28;20567;-70
2023/06/19 04:12:23;;;;;;;;;;;21.70;64.90;;;;;;5091200;28;19974;-69
2023/06/19 04:14:49;;;;;;;;;;;21.70;64.80;;;;;;5091058;28;19995;-69
2023/06/19 04:17:15;;;;;;;;;;;21.70;65.50;;;;;;5011897;28;20347;-69
2023/06/19 04:19:41;;;;;;;;;;;21.70;64.90;;;;;;4986843;28;20293;-69
2023/06/19 04:22:06;;;;;;;;;;;21.70;65.10;;;;;;4986509;28;20784;-69
2023/06/19 04:24:32;;;;;;;;;;;21.70;65.50;;;;;;4987857;28;19918;-69
2023/06/19 04:26:57;;;;;;;;;;;21.70;65.20;;;;;;4987605;28;19918;-69
2023/06/19 04:29:23;;;;;;;;;;;21.70;65.30;;;;;;4988005;28;19918;-70
2023/06/19 04:31:48;;;;;;;;;;;21.70;65.90;;;;;;4987991;28;19921;-69
2023/06/19 04:34:16;;;;;;;;;;;21.70;65.90;;;;;;4986852;28;19949;-69
2023/06/19 04:36:41;;;;;;;;;;;21.70;65.90;;;;;;4987490;28;20008;-69
2023/06/19 04:39:07;;;;;;;;;;;21.70;65.70;;;;;;4987940;28;20048;-69
2023/06/19 04:41:32;;;;;;;;;;;21.70;65.60;;;;;;4987790;28;19917;-69
2023/06/19 04:43:58;;;;;;;;;;;21.70;65.70;;;;;;4987840;28;20322;-69
2023/06/19 04:46:23;;;;;;;;;;;21.70;65.60;;;;;;4987671;28;19917;-69
2023/06/19 04:48:50;;;;;;;;;;;21.70;65.40;;;;;;4987632;28;20020;-69
2023/06/19 04:51:20;;;;;;;;;;;21.70;65.70;;;;;;4990497;28;20012;-69
2023/06/19 04:53:45;;;;;;;;;;;21.70;65.90;;;;;;4987738;28;20005;-69
2023/06/19 04:56:11;;;;;;;;;;;21.70;65.90;;;;;;4987268;28;20019;-69
2023/06/19 04:58:38;;;;;;;;;;;21.70;67.00;;;;;;4986107;28;19960;-69
2023/06/19 05:01:04;;;;;;;;;;;21.70;67.40;;;;;;4987706;28;19910;-69
2023/06/19 05:03:29;;;;;;;;;;;21.70;67.40;;;;;;4987615;28;20366;-69
2023/06/19 05:05:55;;;;;;;;;;;21.70;66.90;;;;;;4987179;28;19914;-68
2023/06/19 05:08:20;;;;;;;;;;;21.70;67.20;;;;;;4987278;28;20462;-69
2023/06/19 05:10:46;;;;;;;;;;;21.70;67.40;;;;;;4987551;28;19959;-69
2023/06/19 05:13:11;;;;;;;;;;;21.70;66.60;;;;;;4987255;28;20591;-69
2023/06/19 05:15:37;;;;;;;;;;;21.70;67.00;;;;;;4987142;28;20020;-69
2023/06/19 05:18:02;;;;;;;;;;;21.70;67.10;;;;;;4987386;28;19956;-68
2023/06/19 05:20:28;;;;;;;;;;;21.70;66.80;;;;;;4989533;28;19914;-69
2023/06/19 05:22:53;;;;;;;;;;;21.80;66.80;;;;;;4983336;28;19921;-69
2023/06/19 05:25:19;;;;;;;;;;;21.80;67.30;;;;;;5001318;28;19918;-69
2023/06/19 05:27:44;;;;;;;;;;;21.80;67.10;;;;;;4987100;28;20244;-69
2023/06/19 05:30:10;;;;;;;;;;;21.80;66.60;;;;;;4987104;28;19924;-69
2023/06/19 05:32:36;;;;;;;;;;;21.80;66.80;;;;;;4987400;28;19914;-69
2023/06/19 05:35:01;;;;;;;;;;;21.80;66.70;;;;;;4987438;28;19953;-69
2023/06/19 05:37:27;;;;;;;;;;;21.80;67.00;;;;;;4986769;28;19918;-69
2023/06/19 05:39:52;;;;;;;;;;;21.80;66.90;;;;;;4979548;28;20330;-69
2023/06/19 05:42:18;;;;;;;;;;;21.80;67.00;;;;;;4988732;28;20006;-69
2023/06/19 05:44:43;;;;;;;;;;;21.80;66.70;;;;;;5022447;28;19909;-69
2023/06/19 05:47:09;;;;;;;;;;;21.80;66.70;;;;;;4985204;28;19910;-69
2023/06/19 05:49:34;;;;;;;;;;;21.80;67.20;;;;;;4972905;28;19918;-69
2023/06/19 05:52:00;;;;;;;;;;;21.80;67.10;;;;;;4985447;28;19937;-69
2023/06/19 05:54:26;;;;;;;;;;;21.80;67.00;;;;;;4985833;28;19914;-69
2023/06/19 05:56:52;;;;;;;;;;;21.90;66.90;;;;;;5004633;28;19914;-69
2023/06/19 05:59:17;;;;;;;;;;;21.90;67.10;;;;;;5028941;28;19920;-69
2023/06/19 06:01:43;;;;;;;;;;;21.90;68.50;;;;;;5017125;28;19914;-69
2023/06/19 06:04:09;;;;;;;;;;;21.90;67.90;;;;;;4986533;28;20275;-69
2023/06/19 06:06:34;;;;;;;;;;;21.90;67.30;;;;;;4986175;28;19959;-69
2023/06/19 06:09:00;;;;;;;;;;;21.90;67.20;;;;;;4984734;28;20371;-69
2023/06/19 06:11:26;;;;;;;;;;;21.90;67.20;;;;;;4985056;28;19910;-69
2023/06/19 06:13:51;;;;;;;;;;;21.90;67.70;;;;;;4986221;28;19917;-69
2023/06/19 06:16:17;;;;;;;;;;;21.90;67.80;;;;;;4985775;28;19918;-69
2023/06/19 06:18:42;;;;;;;;;;;21.90;67.50;;;;;;4986233;28;20275;-69
2023/06/19 06:21:08;;;;;;;;;;;21.90;67.90;;;;;;4989912;28;19910;-69
2023/06/19 06:23:33;;;;;;;;;;;22.00;68.10;;;;;;4980765;28;19929;-69
2023/06/19 06:26:02;;;;;;;;;;;22.00;68.00;;;;;;4985661;28;19924;-69
2023/06/19 06:28:27;;;;;;;;;;;22.10;69.30;;;;;;4985778;28;19978;-69
2023/06/19 06:30:53;;;;;;;;;;;22.00;68.00;;;;;;4985067;28;19910;-69
2023/06/19 06:33:19;;;;;;;;;;;22.10;68.00;;;;;;4986139;28;20358;-69
2023/06/19 06:35:44;;;;;;;;;;;22.10;67.50;;;;;;4985719;28;20383;-69
2023/06/19 06:38:10;;;;;;;;;;;22.20;68.30;;;;;;4985608;28;19914;-69
2023/06/19 06:40:36;;;;;;;;;;;22.20;67.50;;;;;;4985940;28;19914;-69
2023/06/19 06:43:02;;;;;;;;;;;22.20;67.50;;;;;;4984208;28;19970;-69
2023/06/19 06:45:27;;;;;;;;;;;22.20;67.90;;;;;;4983815;28;20290;-69
2023/06/19 06:47:53;;;;;;;;;;;22.20;68.60;;;;;;4982811;28;19910;-69
2023/06/19 06:50:18;;;;;;;;;;;22.20;68.40;;;;;;5041723;28;19919;-69
2023/06/19 06:52:44;;;;;;;;;;;22.20;68.20;;;;;;4988419;28;19917;-69
2023/06/19 06:55:09;;;;;;;;;;;22.20;68.00;;;;;;4985899;28;20027;-69
2023/06/19 06:57:35;;;;;;;;;;;22.30;68.60;;;;;;4985468;28;20359;-69
2023/06/19 07:00:01;;;;;;;;;;;22.30;69.00;;;;;;4985894;28;19913;-69
2023/06/19 07:02:26;;;;;;;;;;;22.30;68.60;;;;;;4985886;28;20605;-69
2023/06/19 07:04:52;;;;;;;;;;;22.30;68.60;;;;;;4986011;28;19914;-69
2023/06/19 07:07:17;;;;;;;;;;;22.30;68.30;;;;;;4985404;28;19928;-68
2023/06/19 07:09:43;;;;;;;;;;;22.30;68.10;;;;;;4984518;28;20326;-69
2023/06/19 07:12:08;;;;;;;;;;;22.30;68.20;;;;;;4985561;28;19935;-69
2023/06/19 07:14:34;;;;;;;;;;;22.30;68.10;;;;;;4988215;28;19914;-69
2023/06/19 07:16:59;;;;;;;;;;;22.30;67.80;;;;;;5002042;28;19914;-69
2023/06/19 07:19:25;;;;;;;;;;;22.30;69.00;;;;;;4989036;28;19920;-69
2023/06/19 07:21:51;;;;;;;;;;;22.30;68.50;;;;;;4991132;28;19910;-69
2023/06/19 07:24:16;;;;;;;;;;;22.30;68.60;;;;;;5048865;28;19912;-69
2023/06/19 07:26:42;;;;;;;;;;;22.30;68.30;;;;;;5086775;28;19919;-69
2023/06/19 07:29:07;;;;;;;;;;;22.30;68.60;;;;;;4987511;28;19918;-69
2023/06/19 07:31:33;;;;;;;;;;;22.30;68.30;;;;;;4988712;28;19918;-69
2023/06/19 07:33:58;;;;;;;;;;;22.30;69.00;;;;;;4988601;28;19991;-69
2023/06/19 07:36:24;;;;;;;;;;;22.30;68.50;;;;;;4988280;28;19914;-69
2023/06/19 07:38:52;;;;;;;;;;;22.30;69.40;;;;;;4986983;28;20000;-69
2023/06/19 07:41:17;;;;;;;;;;;22.30;68.00;;;;;;4987381;28;20410;-69
2023/06/19 07:43:43;;;;;;;;;;;22.30;68.80;;;;;;4987163;28;19971;-69
2023/06/19 07:46:09;;;;;;;;;;;22.40;69.00;;;;;;4988550;28;19961;-69
2023/06/19 07:48:34;;;;;;;;;;;22.30;68.00;;;;;;4997294;28;20345;-69
2023/06/19 07:51:00;;;;;;;;;;;22.40;68.00;;;;;;5005296;28;19914;-69
2023/06/19 07:53:25;;;;;;;;;;;22.40;68.50;;;;;;5067261;28;19919;-69
2023/06/19 07:55:51;;;;;;;;;;;22.40;68.90;;;;;;5091070;28;19912;-69
2023/06/19 07:58:16;;;;;;;;;;;22.40;68.40;;;;;;5089688;28;20011;-69
2023/06/19 08:00:42;;;;;;;;;;;22.40;68.40;;;;;;5091188;28;19916;-70
2023/06/19 08:03:07;;;;;;;;;;;22.40;68.60;;;;;;5091094;28;19912;-69
2023/06/19 08:05:33;;;;;;;;;;;22.40;68.80;;;;;;5028856;28;19913;-69
2023/06/19 08:07:59;;;;;;;;;;;22.40;69.00;;;;;;4988496;28;19909;-69
2023/06/19 08:10:24;;;;;;;;;;;22.40;69.00;;;;;;4987050;28;20374;-69
2023/06/19 08:12:50;;;;;;;;;;;22.50;69.80;;;;;;4988448;28;20313;-69
2023/06/19 08:15:15;;;;;;;;;;;22.50;68.90;;;;;;4988300;28;20381;-69
2023/06/19 08:17:41;;;;;;;;;;;22.60;68.70;;;;;;4988229;28;19917;-69
2023/06/19 08:20:07;;;;;;;;;;;22.50;69.60;;;;;;4988403;28;20492;-69
2023/06/19 08:22:33;;;;;;;;;;;22.60;68.50;;;;;;4986752;28;20364;-69
2023/06/19 08:24:58;;;;;;;;;;;22.60;68.60;;;;;;4987443;28;19992;-69
2023/06/19 08:27:24;;;;;;;;;;;22.60;68.30;;;;;;4987412;28;20008;-69
2023/06/19 08:29:49;;;;;;;;;;;22.70;68.50;;;;;;4988307;28;20016;-69
2023/06/19 08:32:16;;;;;;;;;;;22.70;68.60;;;;;;4988107;28;19910;-69
2023/06/19 08:34:42;;;;;;;;;;;22.80;68.60;;;;;;4988495;28;19987;-69
2023/06/19 08:37:08;;;;;;;;;;;22.80;68.00;;;;;;4987782;28;20314;-69
2023/06/19 08:39:33;;;;;;;;;;;22.90;67.80;;;;;;4988154;28;19916;-69
2023/06/19 08:41:59;;;;;;;;;;;22.90;68.20;;;;;;4987869;28;19914;-70
2023/06/19 08:44:24;;;;;;;;;;;22.90;67.50;;;;;;4986800;28;19910;-69
2023/06/19 08:46:50;;;;;;;;;;;23.00;68.00;;;;;;4987880;28;19910;-70
2023/06/19 08:49:16;;;;;;;;;;;23.00;68.00;;;;;;4987827;28;19997;-69
2023/06/19 08:51:41;;;;;;;;;;;23.00;67.70;;;;;;4991587;28;20426;-69
2023/06/19 08:54:08;;;;;;;;;;;23.00;68.40;;;;;;4987762;28;19914;-69
2023/06/19 08:56:34;;;;;;;;;;;22.90;68.20;;;;;;4987691;28;19913;-69
2023/06/19 08:59:09;;;;;;;;;;;22.90;68.90;;;;;;4987551;28;19925;-70
2023/06/19 09:01:35;;;;;;;;;;;23.00;68.90;;;;;;4987691;28;19910;-69
2023/06/19 09:04:07;;;;;;;;;;;23.00;68.60;;;;;;4987660;28;19914;-69
2023/06/19 09:06:33;;;;;;;;;;;23.10;68.20;;;;;;4987368;28;20362;-69
2023/06/19 09:08:59;;;;;;;;;;;23.10;68.10;;;;;;4987188;28;19917;-69
2023/06/19 09:11:25;;;;;;;;;;;23.20;68.20;;;;;;4987400;28;19917;-69
2023/06/19 09:13:58;;;;;;;;;;;23.20;67.60;;;;;;4987360;28;19910;-69
2023/06/19 09:16:24;;;;;;;;;;;23.30;68.30;;;;;;4987191;28;19994;-69
2023/06/19 09:18:49;;;;;;;;;;;23.30;68.20;;;;;;5001821;28;20366;-70
2023/06/19 09:21:17;;;;;;;;;;;23.30;68.50;;;;;;4987285;28;19945;-69
2023/06/19 09:23:43;;;;;;;;;;;23.40;67.50;;;;;;4982685;28;19922;-69
2023/06/19 09:26:09;;;;;;;;;;;23.40;67.70;;;;;;4986913;28;19955;-70
2023/06/19 09:28:39;;;;;;;;;;;23.50;67.70;;;;;;4986966;28;20020;-70
2023/06/19 09:31:05;;;;;;;;;;;23.60;66.80;;;;;;4987446;28;20424;-70
2023/06/19 09:33:32;;;;;;;;;;;23.60;66.90;;;;;;4987170;28;19919;-69
2023/06/19 09:35:58;;;;;;;;;;;23.70;67.90;;;;;;4986859;28;19917;-69
2023/06/19 09:38:26;;;;;;;;;;;23.70;67.20;;;;;;4986537;28;19910;-70
2023/06/19 09:40:51;;;;;;;;;;;23.70;67.20;;;;;;4986996;28;19914;-69
2023/06/19 09:43:43;;;;;;;;;;;23.70;66.60;;;;;;4986988;28;19924;-70
2023/06/19 09:46:10;;;;;;;;;;;23.80;67.10;;;;;;4989135;28;19917;-70
2023/06/19 09:48:40;;;;;;;;;;;23.80;67.00;;;;;;4992100;28;19913;-71
2023/06/19 09:51:15;;;;;;;;;;;23.90;66.80;;;;;;5022440;28;19924;-70
2023/06/19 09:53:41;;;;;;;;;;;23.80;66.80;;;;;;4986968;28;19917;-70
2023/06/19 09:56:08;;;;;;;;;;;23.90;66.60;;;;;;4985338;28;19920;-70
2023/06/19 09:58:33;;;;;;;;;;;23.90;67.20;;;;;;4986649;28;19917;-70
2023/06/19 10:00:59;;;;;;;;;;;24.00;66.70;;;;;;4986871;28;19967;-70
2023/06/19 10:03:32;;;;;;;;;;;24.00;66.80;;;;;;4985514;28;20419;-70
2023/06/19 10:05:59;;;;;;;;;;;24.10;66.30;;;;;;4985244;28;20706;-70
2023/06/19 10:08:30;;;;;;;;;;;24.10;66.30;;;;;;4986552;28;19910;-70
2023/06/19 10:10:56;;;;;;;;;;;24.20;66.00;;;;;;4986728;28;19993;-70
2023/06/19 10:13:30;;;;;;;;;;;24.30;66.30;;;;;;4986575;28;19914;-70
2023/06/19 10:15:55;;;;;;;;;;;24.40;66.20;;;;;;4986537;28;19910;-69
2023/06/19 10:18:21;;;;;;;;;;;24.50;65.70;;;;;;4986860;28;19917;-69
2023/06/19 10:20:46;;;;;;;;;;;24.60;66.00;;;;;;4990394;28;19913;-70
2023/06/19 10:23:12;;;;;;;;;;;24.60;65.60;;;;;;4981292;28;19922;-71
2023/06/19 10:25:39;;;;;;;;;;;24.60;65.30;;;;;;4986111;28;19953;-70
2023/06/19 10:28:15;;;;;;;;;;;24.70;65.90;;;;;;4986320;28;19918;-70
2023/06/19 10:30:40;;;;;;;;;;;24.70;65.10;;;;;;4986367;28;19921;-70
2023/06/19 10:33:06;;;;;;;;;;;24.90;65.70;;;;;;4984895;28;19967;-70
2023/06/19 10:35:41;;;;;;;;;;;24.80;65.30;;;;;;4986184;28;20640;-70
2023/06/19 10:38:06;;;;;;;;;;;24.90;65.30;;;;;;4986226;28;19917;-70
2023/06/19 10:40:32;;;;;;;;;;;24.90;65.20;;;;;;4986205;28;20741;-69
2023/06/19 10:42:58;;;;;;;;;;;25.00;64.90;;;;;;4986249;28;19925;-70
2023/06/19 10:45:28;;;;;;;;;;;25.00;65.00;;;;;;4984644;28;19913;-70
2023/06/19 10:47:54;;;;;;;;;;;25.10;64.80;;;;;;4986157;28;19909;-70
2023/06/19 10:50:20;;;;;;;;;;;25.20;64.90;;;;;;4988424;28;19918;-71
2023/06/19 10:52:45;;;;;;;;;;;25.20;64.70;;;;;;4992119;28;19916;-71
2023/06/19 10:55:12;;;;;;;;;;;25.20;64.80;;;;;;4989468;28;19914;-70
2023/06/19 10:57:38;;;;;;;;;;;25.30;64.70;;;;;;4989225;28;19922;-71
2023/06/19 11:00:14;;;;;;;;;;;25.30;64.90;;;;;;4988045;28;20001;-70
2023/06/19 11:02:42;;;;;;;;;;;25.40;64.90;;;;;;4989351;28;20632;-70
2023/06/19 11:05:08;;;;;;;;;;;25.40;64.50;;;;;;4989340;28;20008;-70
2023/06/19 11:07:34;;;;;;;;;;;25.40;64.70;;;;;;4988956;28;19993;-70
2023/06/19 11:09:59;;;;;;;;;;;25.50;64.80;;;;;;4987708;28;19945;-70
2023/06/19 11:12:25;;;;;;;;;;;25.50;64.60;;;;;;4988997;28;19921;-70
2023/06/19 11:14:50;;;;;;;;;;;25.50;64.70;;;;;;4989194;28;19914;-70
2023/06/19 11:17:18;;;;;;;;;;;25.60;64.40;;;;;;4988763;28;19959;-70
2023/06/19 11:19:44;;;;;;;;;;;25.60;64.40;;;;;;4989311;28;20351;-70
2023/06/19 11:22:10;;;;;;;;;;;25.60;64.30;;;;;;4987521;28;19926;-70
2023/06/19 11:24:36;;;;;;;;;;;25.60;64.50;;;;;;4988900;28;19914;-70
2023/06/19 11:27:02;;;;;;;;;;;25.60;64.30;;;;;;5003180;28;20264;-70
2023/06/19 11:29:35;;;;;;;;;;;25.70;64.30;;;;;;4988702;28;19922;-70
2023/06/19 11:32:13;;;;;;;;;;;25.80;64.10;;;;;;4988862;28;19914;-70
2023/06/19 11:34:39;;;;;;;;;;;25.80;63.90;;;;;;4988900;28;19914;-70
2023/06/19 11:37:20;;;;;;;;;;;25.90;63.70;;;;;;4988565;28;20274;-70
2023/06/19 11:39:47;;;;;;;;;;;26.00;63.70;;;;;;4989239;28;19945;-70
2023/06/19 11:42:13;;;;;;;;;;;26.00;63.80;;;;;;4988840;28;19921;-70
2023/06/19 11:45:06;;;;;;;;;;;26.10;63.30;;;;;;4995733;28;19913;-70
2023/06/19 11:47:32;;;;;;;;;;;26.10;63.40;;;;;;4972139;28;20017;-70
2023/06/19 11:49:57;;;;;;;;;;;26.20;63.10;;;;;;4969453;28;20018;-71
2023/06/19 11:52:23;;;;;;;;;;;26.30;63.30;;;;;;4990204;28;19920;-70
2023/06/19 11:54:48;;;;;;;;;;;26.40;63.20;;;;;;5038588;28;19959;-71
2023/06/19 11:57:14;;;;;;;;;;;26.50;63.00;;;;;;5090902;28;19908;-71
2023/06/19 11:59:40;;;;;;;;;;;26.60;62.80;;;;;;5090922;28;19908;-71
2023/06/19 12:02:06;;;;;;;;;;;26.70;62.60;;;;;;5090907;28;19912;-71
2023/06/19 12:04:31;;;;;;;;;;;26.70;62.60;;;;;;5073032;28;19914;-71
2023/06/19 12:06:57;;;;;;;;;;;26.60;62.50;;;;;;4986455;28;20772;-71
2023/06/19 12:09:22;;;;;;;;;;;26.80;62.50;;;;;;4986914;28;20430;-71
2023/06/19 12:11:48;;;;;;;;;;;26.80;62.40;;;;;;4988207;28;20310;-71
2023/06/19 12:14:13;;;;;;;;;;;26.90;62.30;;;;;;4988296;28;19914;-71
2023/06/19 12:16:39;;;;;;;;;;;27.00;62.20;;;;;;4987797;28;19914;-71
2023/06/19 12:19:05;;;;;;;;;;;27.00;62.20;;;;;;4988450;28;19914;-71
2023/06/19 12:21:30;;;;;;;;;;;27.00;62.30;;;;;;4991254;28;20335;-71
2023/06/19 12:23:55;;;;;;;;;;;27.10;62.50;;;;;;4987272;28;20648;-71
2023/06/19 12:26:24;;;;;;;;;;;27.20;62.60;;;;;;4987864;28;19910;-71
2023/06/19 12:28:50;;;;;;;;;;;27.20;62.50;;;;;;4987818;28;20584;-71
2023/06/19 12:31:15;;;;;;;;;;;27.30;61.80;;;;;;4988038;28;19936;-71
2023/06/19 12:33:43;;;;;;;;;;;27.30;62.00;;;;;;4986955;28;20313;-71
2023/06/19 12:36:15;;;;;;;;;;;27.40;62.00;;;;;;4986960;28;19910;-71
2023/06/19 12:38:40;;;;;;;;;;;27.30;62.00;;;;;;4986985;28;19914;-71
2023/06/19 12:41:06;;;;;;;;;;;27.40;61.60;;;;;;4987069;28;19913;-71
2023/06/19 12:43:32;;;;;;;;;;;27.50;61.90;;;;;;4985702;28;20505;-71
2023/06/19 12:45:59;;;;;;;;;;;27.50;60.80;;;;;;4986756;28;19925;-71
2023/06/19 12:48:28;;;;;;;;;;;27.60;60.80;;;;;;4986499;28;19913;-71
2023/06/19 12:50:53;;;;;;;;;;;27.70;61.30;;;;;;4990384;28;19935;-71
2023/06/19 12:53:19;;;;;;;;;;;27.80;61.40;;;;;;4986760;28;19945;-71
2023/06/19 12:55:45;;;;;;;;;;;27.80;61.20;;;;;;4986549;28;20362;-71
2023/06/19 12:58:10;;;;;;;;;;;27.90;61.30;;;;;;4986696;28;19917;-71
2023/06/19 13:00:39;;;;;;;;;;;28.00;61.10;;;;;;4986843;28;20320;-71
2023/06/19 13:03:04;;;;;;;;;;;28.10;60.70;;;;;;4986722;28;19987;-70
2023/06/19 13:05:30;;;;;;;;;;;28.10;60.50;;;;;;4986263;28;20566;-71
2023/06/19 13:07:55;;;;;;;;;;;28.00;60.80;;;;;;4986646;28;19914;-71
2023/06/19 13:10:21;;;;;;;;;;;28.00;60.90;;;;;;4986524;28;20040;-71
2023/06/19 13:12:46;;;;;;;;;;;28.00;60.90;;;;;;4985842;28;19914;-70
2023/06/19 13:15:12;;;;;;;;;;;28.00;60.70;;;;;;4986758;28;20796;-71
2023/06/19 13:17:37;;;;;;;;;;;28.00;61.00;;;;;;4985224;28;19914;-71
2023/06/19 13:20:04;;;;;;;;;;;28.00;60.80;;;;;;4986440;28;19953;-71
2023/06/19 13:22:30;;;;;;;;;;;28.00;60.80;;;;;;4999507;28;19932;-71
2023/06/19 13:24:56;;;;;;;;;;;28.00;60.40;;;;;;4986323;28;19918;-71
2023/06/19 13:27:21;;;;;;;;;;;28.00;61.10;;;;;;4986628;28;19917;-71
2023/06/19 13:29:47;;;;;;;;;;;28.00;61.00;;;;;;4985835;28;19925;-71
2023/06/19 13:32:12;;;;;;;;;;;28.10;60.90;;;;;;4987154;28;19913;-71
2023/06/19 13:34:41;;;;;;;;;;;28.20;60.90;;;;;;4987211;28;19914;-71
2023/06/19 13:37:07;;;;;;;;;;;28.20;61.10;;;;;;4986643;28;19913;-70
2023/06/19 13:39:32;;;;;;;;;;;28.10;60.80;;;;;;4989209;28;19920;-71
2023/06/19 13:42:00;;;;;;;;;;;28.10;60.80;;;;;;5004984;28;20394;-70
2023/06/19 13:44:26;;;;;;;;;;;28.20;60.80;;;;;;5006382;28;20342;-71
2023/06/19 13:46:52;;;;;;;;;;;28.20;60.70;;;;;;4982162;28;19914;-71
2023/06/19 13:49:17;;;;;;;;;;;28.30;60.50;;;;;;4967415;28;19929;-71
2023/06/19 13:51:44;;;;;;;;;;;28.30;60.70;;;;;;4983223;28;19913;-71
2023/06/19 13:54:09;;;;;;;;;;;28.30;60.60;;;;;;4985425;28;19910;-70
2023/06/19 13:56:36;;;;;;;;;;;28.30;60.40;;;;;;4986424;28;19921;-71
2023/06/19 13:59:02;;;;;;;;;;;28.40;60.20;;;;;;4986405;28;19914;-71
2023/06/19 14:01:28;;;;;;;;;;;28.30;60.30;;;;;;4986676;28;20637;-71
2023/06/19 14:03:53;;;;;;;;;;;28.30;61.00;;;;;;5071806;28;19916;-70
2023/06/19 14:06:19;;;;;;;;;;;28.30;61.20;;;;;;4993907;28;19910;-71
2023/06/19 14:08:45;;;;;;;;;;;28.30;60.50;;;;;;4984830;28;19925;-71
2023/06/19 14:11:11;;;;;;;;;;;28.30;60.50;;;;;;4986377;28;19913;-70